Accueil
METAR-TAF:

METAR-TAF

Aéroports :

Aéroport international du Kansai

Kansai, Japon

latitude: 34-25N, longitude: 135-15E, altitude: 5 m

Observation

Le bulletin a été fait il y a 26 minutes, à 06:30 UTC
Vent 13 kt de sud-ouest
Température 33°C
Humidité 59%
Pression 1008 hPa
Visibilité 10 km ou plus
Quelques nuages à une hauteur de 1500 ft
Nuages fragmentés

METAR: RJBB 250630Z 22013KT 9999 FEW015 BKN/// 33/24 Q1008 NOSIG

Heure: 15:56 (06:56 UTC)

Prévision

Le bulletin a été fait il y a 1 heure et 51 minutes, à 05:05 UTC
Prévision valable du 25 à 06 UTC au 26 à 12 UTC
Vent 11 kt de ouest/sud-ouest
Visibilité 10 km ou plus
Quelques nuages à une hauteur de 2000 ft

TAF: RJBB 250505Z 2506/2612 24011KT 9999 FEW020

Observations et prévisions météorologiques de plus de 4000 aéroports (messages METAR et TAF).

Les stations disponibles sont représentées par des disques jaunes et rouges sur la carte.

Passer la souris dessus pour voir le nom de la station.

Cliquer dessus pour voir les observations et prévisions météorologiques.

Pour changer de carte: cliquez sur les boutons verts avec une croix noire pour zoomer, sur le bouton vert avec un tiret pour effectuer un zoom arrière, ou sur les flèches vertes pour les cartes adjacentes.


METAR-TAF: